createdAt,value
2019-05-29T00:01:21.266Z,10.17
2019-05-29T00:03:48.858Z,10.22
2019-05-29T00:06:19.076Z,10.32
2019-05-29T00:08:49.392Z,10.35
2019-05-29T00:11:19.614Z,10.37
2019-05-29T00:13:51.573Z,10.34
2019-05-29T00:16:21.813Z,10.35
2019-05-29T00:18:52.100Z,10.33
2019-05-29T00:21:22.366Z,10.29
2019-05-29T00:23:52.622Z,10.30
2019-05-29T00:26:23.303Z,10.30
2019-05-29T00:28:53.485Z,10.30
2019-05-29T00:31:23.746Z,10.33
2019-05-29T00:33:54.448Z,10.31
2019-05-29T00:36:24.702Z,10.24
2019-05-29T00:38:55.313Z,10.23
2019-05-29T00:41:26.034Z,10.22
2019-05-29T00:43:56.666Z,10.16
2019-05-29T00:46:26.865Z,10.03
2019-05-29T00:48:57.109Z,9.98
2019-05-29T00:51:27.368Z,9.84
2019-05-29T00:53:57.650Z,9.75
2019-05-29T00:56:28.186Z,9.68
2019-05-29T00:58:58.396Z,9.63
2019-05-29T01:01:28.945Z,9.64
2019-05-29T01:03:59.213Z,9.70
2019-05-29T01:06:29.433Z,9.75
2019-05-29T01:08:59.703Z,9.78
2019-05-29T01:11:29.916Z,9.80
2019-05-29T01:14:00.160Z,9.88
2019-05-29T01:16:30.420Z,9.92
2019-05-29T01:19:20.344Z,9.96
2019-05-29T01:21:50.649Z,10.01
2019-05-29T01:24:21.263Z,10.06
2019-05-29T01:26:51.853Z,10.10
2019-05-29T01:29:23.281Z,10.14
2019-05-29T01:31:53.673Z,10.19
2019-05-29T01:34:24.281Z,10.23
2019-05-29T01:36:54.522Z,10.28
2019-05-29T01:39:24.770Z,10.31
2019-05-29T01:41:55.226Z,10.28
2019-05-29T01:44:25.566Z,10.27
2019-05-29T01:46:55.872Z,10.24
2019-05-29T01:49:28.070Z,10.22
2019-05-29T01:51:59.437Z,10.20
2019-05-29T01:54:30.733Z,10.19
2019-05-29T01:57:01.032Z,10.20
2019-05-29T01:59:31.244Z,10.14
2019-05-29T02:02:01.727Z,10.18
2019-05-29T02:04:32.081Z,10.18
2019-05-29T02:07:02.417Z,10.19
2019-05-29T02:09:33.033Z,10.23
2019-05-29T02:12:03.291Z,10.23
2019-05-29T02:14:33.591Z,10.28
2019-05-29T02:19:36.666Z,10.34
2019-05-29T02:22:06.960Z,10.39
2019-05-29T02:24:37.539Z,10.40
2019-05-29T02:27:07.785Z,10.43
2019-05-29T02:29:38.094Z,10.48
2019-05-29T02:32:08.322Z,10.46
2019-05-29T02:34:38.605Z,10.47
2019-05-29T02:37:08.875Z,10.46
2019-05-29T02:39:40.074Z,10.48
2019-05-29T02:42:10.327Z,10.53
2019-05-29T02:44:40.634Z,10.55
2019-05-29T02:47:10.957Z,10.51
2019-05-29T02:49:41.578Z,10.50
2019-05-29T02:52:11.841Z,10.48
2019-05-29T02:54:42.248Z,10.43
2019-05-29T02:57:12.778Z,10.48
2019-05-29T02:59:44.102Z,10.45
2019-05-29T03:02:15.369Z,10.46
2019-05-29T03:04:45.693Z,10.50
2019-05-29T03:07:16.282Z,10.51
2019-05-29T03:09:47.052Z,10.53
2019-05-29T03:12:17.303Z,10.56
2019-05-29T03:14:47.878Z,10.54
2019-05-29T03:17:18.365Z,10.54
2019-05-29T03:19:48.674Z,10.50
2019-05-29T03:22:18.975Z,10.40
2019-05-29T03:24:49.185Z,10.23
2019-05-29T03:27:19.629Z,10.07
2019-05-29T03:29:49.888Z,9.87
2019-05-29T03:32:20.383Z,9.79
2019-05-29T03:34:50.756Z,9.66
2019-05-29T03:37:20.983Z,9.59
2019-05-29T03:39:51.302Z,9.62
2019-05-29T03:42:21.885Z,9.64
2019-05-29T03:44:52.188Z,9.71
2019-05-29T03:47:22.417Z,9.76
2019-05-29T03:49:53.066Z,9.85
2019-05-29T03:52:23.329Z,9.94
2019-05-29T03:54:53.540Z,9.98
2019-05-29T03:57:24.450Z,10.02
2019-05-29T03:59:55.285Z,10.09
2019-05-29T04:02:26.722Z,10.21
2019-05-29T04:04:56.960Z,10.30
2019-05-29T04:07:27.256Z,10.33
2019-05-29T04:09:57.551Z,10.38
2019-05-29T04:12:29.598Z,10.42
2019-05-29T04:15:00.366Z,10.42
2019-05-29T04:17:33.673Z,10.44
2019-05-29T04:20:03.901Z,10.48
2019-05-29T04:22:39.147Z,10.52
2019-05-29T04:25:10.216Z,10.55
2019-05-29T04:27:43.446Z,10.59
2019-05-29T04:30:14.087Z,10.64
2019-05-29T04:32:44.780Z,10.70
2019-05-29T04:35:15.063Z,10.79
2019-05-29T04:37:45.364Z,10.88
2019-05-29T04:40:15.701Z,10.92
2019-05-29T04:42:46.312Z,10.99
2019-05-29T04:45:17.574Z,11.08
2019-05-29T04:47:47.805Z,11.21
2019-05-29T04:50:18.003Z,11.27
2019-05-29T04:52:48.362Z,11.32
2019-05-29T04:55:18.639Z,11.44
2019-05-29T04:57:51.005Z,11.50
2019-05-29T05:00:21.521Z,11.56
2019-05-29T05:02:51.873Z,11.65
2019-05-29T05:05:22.486Z,11.69
2019-05-29T05:07:52.809Z,11.68
2019-05-29T05:10:48.008Z,11.71
2019-05-29T05:13:18.320Z,11.73
2019-05-29T05:15:49.793Z,11.73
2019-05-29T05:18:20.087Z,11.78
2019-05-29T05:20:50.393Z,11.75
2019-05-29T05:23:20.646Z,11.75
2019-05-29T05:25:50.819Z,11.67
2019-05-29T05:28:22.112Z,11.70
2019-05-29T05:30:52.400Z,11.69
2019-05-29T05:33:22.757Z,11.70
2019-05-29T05:35:52.978Z,11.69
2019-05-29T05:38:23.297Z,11.72
2019-05-29T05:40:53.502Z,11.80
2019-05-29T05:43:24.667Z,11.77
2019-05-29T05:45:55.145Z,11.88
2019-05-29T05:48:25.397Z,11.97
2019-05-29T05:50:55.645Z,11.96
2019-05-29T05:53:25.943Z,12.04
2019-05-29T05:55:56.194Z,12.13
2019-05-29T05:58:27.403Z,12.16
2019-05-29T06:00:57.700Z,12.18
2019-05-29T06:03:28.432Z,12.25
2019-05-29T06:05:59.035Z,12.25
2019-05-29T06:08:29.319Z,12.34
2019-05-29T06:10:59.897Z,12.39
2019-05-29T06:13:30.521Z,12.35
2019-05-29T06:16:00.748Z,12.52
2019-05-29T06:18:32.379Z,12.62
2019-05-29T06:21:02.801Z,12.75
2019-05-29T06:23:33.041Z,12.82
2019-05-29T06:26:03.440Z,12.84
2019-05-29T06:28:35.032Z,12.82
2019-05-29T06:31:05.283Z,12.97
2019-05-29T06:33:37.355Z,13.01
2019-05-29T06:36:07.720Z,13.07
2019-05-29T06:38:38.051Z,12.97
2019-05-29T06:41:08.616Z,13.01
2019-05-29T06:43:39.894Z,13.05
2019-05-29T06:46:10.349Z,13.08
2019-05-29T06:48:52.352Z,13.05
2019-05-29T06:51:12.650Z,13.11
2019-05-29T06:53:43.927Z,13.33
2019-05-29T06:56:14.828Z,13.26
2019-05-29T06:58:46.305Z,13.38
2019-05-29T07:01:16.495Z,13.47
2019-05-29T07:03:48.157Z,13.47
2019-05-29T07:06:18.675Z,13.55
2019-05-29T07:08:50.255Z,13.55
2019-05-29T07:11:21.780Z,13.82
2019-05-29T07:13:52.352Z,13.98
2019-05-29T07:16:23.290Z,14.06
2019-05-29T07:19:24.014Z,14.18
2019-05-29T07:21:25.890Z,14.28
2019-05-29T07:23:56.427Z,14.21
2019-05-29T07:26:26.626Z,14.34
2019-05-29T07:29:07.350Z,14.43
2019-05-29T07:31:28.899Z,14.58
2019-05-29T07:33:59.238Z,14.65
2019-05-29T07:36:29.447Z,14.68
2019-05-29T07:39:03.556Z,14.67
2019-05-29T07:41:33.158Z,14.68
2019-05-29T07:44:03.390Z,14.46
2019-05-29T07:46:35.651Z,14.47
2019-05-29T07:49:05.869Z,14.51
2019-05-29T07:51:38.168Z,14.78
2019-05-29T07:54:09.544Z,15.13
2019-05-29T07:56:40.343Z,15.14
2019-05-29T07:59:10.666Z,15.52
2019-05-29T08:01:40.940Z,15.52
2019-05-29T08:04:11.220Z,15.63
2019-05-29T08:06:48.312Z,15.93
2019-05-29T08:09:13.700Z,16.02
2019-05-29T08:11:43.912Z,16.62
2019-05-29T08:14:14.160Z,16.75
2019-05-29T08:16:44.461Z,17.01
2019-05-29T08:19:15.266Z,17.08
2019-05-29T08:21:46.480Z,16.94
2019-05-29T08:24:16.815Z,16.52
2019-05-29T08:26:48.853Z,16.51
2019-05-29T08:29:19.369Z,16.53
2019-05-29T08:31:50.892Z,16.74
2019-05-29T08:34:21.291Z,17.03
2019-05-29T08:37:05.834Z,17.13
2019-05-29T08:39:35.040Z,16.69
2019-05-29T08:42:21.293Z,16.69
2019-05-29T08:44:27.718Z,16.47
2019-05-29T08:47:09.707Z,16.26
2019-05-29T08:49:30.304Z,16.71
2019-05-29T08:52:11.311Z,16.79
2019-05-29T08:54:32.646Z,17.04
2019-05-29T08:57:02.818Z,17.32
2019-05-29T08:59:33.478Z,16.98
2019-05-29T09:02:03.781Z,17.08
2019-05-29T09:04:34.084Z,17.45
2019-05-29T09:07:05.298Z,17.88
2019-05-29T09:09:35.535Z,17.76
2019-05-29T09:12:05.778Z,18.13
2019-05-29T09:14:36.835Z,18.69
2019-05-29T09:17:07.239Z,18.64
2019-05-29T09:19:37.742Z,18.22
2019-05-29T09:22:07.936Z,17.97
2019-05-29T09:24:38.490Z,18.43
2019-05-29T09:27:08.810Z,19.01
2019-05-29T09:29:39.483Z,19.51
2019-05-29T09:32:09.760Z,19.14
2019-05-29T09:34:40.436Z,18.78
2019-05-29T09:37:10.721Z,18.99
2019-05-29T09:39:41.063Z,19.02
2019-05-29T09:42:11.262Z,18.31
2019-05-29T09:44:42.149Z,18.00
2019-05-29T09:47:12.385Z,18.52
2019-05-29T09:49:42.982Z,19.59
2019-05-29T09:52:13.227Z,20.54
2019-05-29T09:54:43.532Z,20.97
2019-05-29T09:57:15.458Z,21.82
2019-05-29T09:59:45.861Z,22.42
2019-05-29T10:02:16.193Z,22.28
2019-05-29T10:04:46.418Z,22.66
2019-05-29T10:07:16.783Z,23.53
2019-05-29T10:09:47.117Z,21.96
2019-05-29T10:12:17.351Z,21.33
2019-05-29T10:14:51.189Z,22.18
2019-05-29T10:17:19.975Z,22.79
2019-05-29T10:19:50.216Z,23.14
2019-05-29T10:22:20.494Z,22.81
2019-05-29T10:24:51.255Z,22.78
2019-05-29T10:27:21.640Z,23.21
2019-05-29T10:29:53.195Z,23.06
2019-05-29T10:32:23.844Z,23.80
2019-05-29T10:34:54.139Z,23.58
2019-05-29T10:37:24.774Z,23.79
2019-05-29T10:39:54.950Z,24.22
2019-05-29T10:42:25.276Z,24.26
2019-05-29T10:44:55.986Z,24.38
2019-05-29T10:47:26.254Z,24.78
2019-05-29T10:49:56.517Z,24.67
2019-05-29T10:52:27.212Z,24.51
2019-05-29T10:54:57.529Z,24.69
2019-05-29T10:57:27.863Z,25.24
2019-05-29T10:59:58.084Z,24.84
2019-05-29T11:02:28.311Z,25.35
2019-05-29T11:04:59.638Z,24.55
2019-05-29T11:07:30.028Z,25.70
2019-05-29T11:10:00.363Z,26.28
2019-05-29T11:12:30.684Z,25.86
2019-05-29T11:15:01.046Z,24.27
2019-05-29T11:17:31.334Z,25.54
2019-05-29T11:20:01.911Z,26.17
2019-05-29T11:22:32.181Z,26.24
2019-05-29T11:25:21.038Z,26.05
2019-05-29T11:27:34.605Z,25.31
2019-05-29T11:30:06.152Z,25.87
2019-05-29T11:32:36.444Z,27.26
2019-05-29T11:35:06.783Z,28.32
2019-05-29T11:37:37.001Z,27.24
2019-05-29T11:40:07.401Z,27.43
2019-05-29T11:42:37.647Z,27.29
2019-05-29T11:45:09.178Z,28.15
2019-05-29T11:47:39.437Z,28.84
2019-05-29T11:50:19.058Z,28.16
2019-05-29T11:52:43.849Z,28.09
2019-05-29T11:55:15.036Z,28.47
2019-05-29T11:57:45.953Z,28.19
2019-05-29T12:00:20.104Z,29.12
2019-05-29T12:02:49.220Z,28.42
2019-05-29T12:05:19.799Z,28.28
2019-05-29T12:07:51.494Z,29.45
2019-05-29T12:10:22.413Z,29.27
2019-05-29T12:12:53.420Z,29.77
2019-05-29T12:15:25.035Z,30.04
2019-05-29T12:18:08.703Z,29.92
2019-05-29T12:20:28.801Z,26.99
2019-05-29T12:23:20.355Z,29.43
2019-05-29T12:25:31.335Z,29.61
2019-05-29T12:28:03.234Z,29.04
2019-05-29T12:30:34.159Z,29.98
2019-05-29T12:33:04.436Z,29.83
2019-05-29T12:35:34.777Z,30.80
2019-05-29T12:38:05.159Z,31.46
2019-05-29T12:40:35.382Z,32.32
2019-05-29T12:43:05.981Z,33.00
2019-05-29T12:45:36.189Z,33.46
2019-05-29T12:48:13.223Z,31.63
2019-05-29T12:50:38.491Z,31.94
2019-05-29T12:53:09.120Z,28.45
2019-05-29T12:55:39.536Z,29.82
2019-05-29T12:58:09.818Z,28.18
2019-05-29T13:00:40.077Z,26.03
2019-05-29T13:03:10.784Z,24.88
2019-05-29T13:05:41.044Z,24.37
2019-05-29T13:08:11.342Z,28.99
2019-05-29T13:10:41.836Z,28.19
2019-05-29T13:13:12.117Z,29.04
2019-05-29T13:15:42.723Z,31.72
2019-05-29T13:18:13.040Z,30.97
2019-05-29T13:20:43.281Z,30.74
2019-05-29T13:23:13.631Z,32.73
2019-05-29T13:25:43.945Z,33.24
2019-05-29T13:28:14.278Z,32.44
2019-05-29T13:30:44.544Z,32.85
2019-05-29T13:33:14.810Z,30.20
2019-05-29T13:35:45.099Z,28.38
2019-05-29T13:38:15.442Z,25.52
2019-05-29T13:40:45.833Z,29.10
2019-05-29T13:43:16.288Z,30.59
2019-05-29T13:45:46.625Z,27.46
2019-05-29T13:48:16.966Z,25.03
2019-05-29T13:50:48.777Z,25.66
2019-05-29T13:53:19.351Z,29.16
2019-05-29T13:55:50.181Z,31.34
2019-05-29T13:58:20.765Z,32.22
2019-05-29T14:00:51.588Z,32.13
2019-05-29T14:03:22.201Z,31.73
2019-05-29T14:05:52.733Z,32.41
2019-05-29T14:08:22.938Z,32.69
2019-05-29T14:10:53.360Z,32.78
2019-05-29T14:13:23.586Z,32.74
2019-05-29T14:15:53.886Z,33.42
2019-05-29T14:18:25.414Z,33.29
2019-05-29T14:20:55.647Z,32.97
2019-05-29T14:23:25.921Z,33.12
2019-05-29T14:25:56.199Z,33.16
2019-05-29T14:28:26.540Z,33.97
2019-05-29T14:30:57.193Z,33.76
2019-05-29T14:33:27.468Z,34.39
2019-05-29T14:35:57.798Z,34.09
2019-05-29T14:38:28.411Z,33.27
2019-05-29T14:40:59.283Z,32.97
2019-05-29T14:43:29.546Z,32.10
2019-05-29T14:45:59.838Z,33.65
2019-05-29T14:48:30.186Z,33.03
2019-05-29T14:51:03.176Z,32.43
2019-05-29T14:53:33.388Z,32.69
2019-05-29T14:56:04.464Z,33.42
2019-05-29T14:58:34.766Z,33.96
2019-05-29T15:01:05.056Z,32.64
2019-05-29T15:03:36.647Z,33.55
2019-05-29T15:06:07.646Z,33.95
2019-05-29T15:08:37.935Z,30.41
2019-05-29T15:11:10.076Z,31.03
2019-05-29T15:13:40.674Z,31.70
2019-05-29T15:16:10.953Z,32.67
2019-05-29T15:18:41.192Z,33.93
2019-05-29T15:21:11.462Z,34.14
2019-05-29T15:23:41.753Z,34.06
2019-05-29T15:26:12.060Z,35.01
2019-05-29T15:28:43.096Z,34.61
2019-05-29T15:31:14.638Z,35.60
2019-05-29T15:33:46.088Z,34.70
2019-05-29T15:36:16.950Z,34.70
2019-05-29T15:38:47.234Z,31.83
2019-05-29T15:41:17.510Z,28.93
2019-05-29T15:43:49.381Z,27.32
2019-05-29T15:46:19.802Z,25.15
2019-05-29T15:48:50.422Z,28.81
2019-05-29T15:51:21.881Z,33.02
2019-05-29T15:53:52.172Z,35.01
2019-05-29T15:56:28.047Z,33.60
2019-05-29T15:58:54.401Z,32.14
2019-05-29T16:01:24.644Z,33.90
2019-05-29T16:03:54.913Z,33.87
2019-05-29T16:06:25.176Z,31.09
2019-05-29T16:08:55.900Z,33.57
2019-05-29T16:11:26.131Z,34.35
2019-05-29T16:13:56.414Z,30.92
2019-05-29T16:16:27.041Z,31.42
2019-05-29T16:19:00.426Z,32.39
2019-05-29T16:21:29.299Z,31.54
2019-05-29T16:24:00.794Z,31.55
2019-05-29T16:26:31.060Z,33.63
2019-05-29T16:29:01.658Z,34.64
2019-05-29T16:31:32.202Z,34.24
2019-05-29T16:34:02.633Z,33.48
2019-05-29T16:36:32.973Z,32.78
2019-05-29T16:39:03.374Z,33.34
2019-05-29T16:41:35.265Z,32.37
2019-05-29T16:44:05.611Z,31.54
2019-05-29T16:46:35.944Z,31.39
2019-05-29T16:49:06.191Z,32.25
2019-05-29T16:51:36.863Z,32.36
2019-05-29T16:54:07.120Z,32.57
2019-05-29T16:56:37.448Z,33.25
2019-05-29T16:59:08.177Z,33.60
2019-05-29T17:01:38.784Z,34.02
2019-05-29T17:04:09.438Z,33.49
2019-05-29T17:06:40.105Z,34.03
2019-05-29T17:09:10.742Z,34.16
2019-05-29T17:11:41.093Z,34.21
2019-05-29T17:14:11.710Z,33.40
2019-05-29T17:16:41.970Z,32.87
2019-05-29T17:19:12.549Z,32.09
2019-05-29T17:21:43.217Z,31.37
2019-05-29T17:24:14.630Z,32.15
2019-05-29T17:26:45.110Z,31.38
2019-05-29T17:29:16.771Z,29.87
2019-05-29T17:31:47.212Z,30.48
2019-05-29T17:34:17.481Z,30.86
2019-05-29T17:36:48.622Z,31.43
2019-05-29T17:39:20.326Z,31.47
2019-05-29T17:41:51.286Z,31.11
2019-05-29T17:44:21.530Z,30.93
2019-05-29T17:46:51.888Z,30.12
2019-05-29T17:49:32.267Z,29.02
2019-05-29T17:51:54.493Z,28.43
2019-05-29T17:54:26.130Z,28.33
2019-05-29T17:56:58.665Z,26.11
2019-05-29T17:59:30.753Z,23.76
2019-05-29T18:02:01.159Z,22.78
2019-05-29T18:04:31.379Z,21.86
2019-05-29T18:07:01.718Z,21.26
2019-05-29T18:09:32.587Z,20.49
2019-05-29T18:12:03.134Z,19.97
2019-05-29T18:14:33.415Z,19.50
2019-05-29T18:17:04.866Z,19.26
2019-05-29T18:19:35.220Z,19.03
2019-05-29T18:22:05.490Z,18.64
2019-05-29T18:24:35.897Z,18.40
2019-05-29T18:27:06.409Z,18.09
2019-05-29T18:29:36.770Z,17.93
2019-05-29T18:32:07.005Z,17.82
2019-05-29T18:34:37.692Z,17.69
2019-05-29T18:37:07.981Z,17.49
2019-05-29T18:39:39.630Z,17.31
2019-05-29T18:42:09.888Z,17.15
2019-05-29T18:44:40.847Z,17.09
2019-05-29T18:47:11.115Z,16.91
2019-05-29T18:49:41.386Z,16.73
2019-05-29T18:52:11.667Z,16.48
2019-05-29T18:54:41.937Z,16.41
2019-05-29T18:57:15.691Z,16.43
2019-05-29T18:59:44.396Z,16.38
2019-05-29T19:02:14.771Z,16.15
2019-05-29T19:04:45.066Z,16.04
2019-05-29T19:07:15.408Z,15.91
2019-05-29T19:09:45.767Z,15.82
2019-05-29T19:12:16.240Z,15.75
2019-05-29T19:14:46.497Z,15.64
2019-05-29T19:17:16.717Z,15.51
2019-05-29T19:19:47.058Z,15.42
2019-05-29T19:22:17.348Z,15.36
2019-05-29T19:24:47.701Z,15.30
2019-05-29T19:27:31.045Z,15.17
2019-05-29T19:29:50.532Z,15.07
2019-05-29T19:32:20.739Z,15.02
2019-05-29T19:34:51.019Z,14.94
2019-05-29T19:37:23.665Z,14.83
2019-05-29T19:39:55.665Z,14.77
2019-05-29T19:42:26.180Z,14.75
2019-05-29T19:44:56.506Z,14.67
2019-05-29T19:47:28.592Z,14.60
2019-05-29T19:49:58.887Z,14.62
2019-05-29T19:52:29.177Z,14.69
2019-05-29T19:54:59.443Z,14.71
2019-05-29T19:57:46.541Z,14.75
2019-05-29T20:00:03.163Z,14.81
2019-05-29T20:02:34.696Z,14.76
2019-05-29T20:05:05.831Z,14.84
2019-05-29T20:07:37.562Z,14.85
2019-05-29T20:10:08.133Z,14.83
2019-05-29T20:12:38.475Z,14.71
2019-05-29T20:15:09.119Z,14.57
2019-05-29T20:17:39.488Z,14.49
2019-05-29T20:20:11.519Z,14.45
2019-05-29T20:22:41.767Z,14.45
2019-05-29T20:25:13.788Z,14.48
2019-05-29T20:27:44.857Z,14.47
2019-05-29T20:30:18.997Z,14.42
2019-05-29T20:32:49.296Z,14.36
2019-05-29T20:35:19.900Z,14.49
2019-05-29T20:37:50.279Z,14.52
2019-05-29T20:40:20.753Z,14.52
2019-05-29T20:42:51.149Z,14.52
2019-05-29T20:45:21.398Z,14.44
2019-05-29T20:47:51.598Z,14.27
2019-05-29T20:50:21.976Z,14.16
2019-05-29T20:52:52.256Z,14.03
2019-05-29T20:55:22.912Z,13.90
2019-05-29T20:57:53.634Z,13.73
2019-05-29T21:00:23.891Z,13.68
2019-05-29T21:02:54.130Z,13.49
2019-05-29T21:05:24.419Z,13.52
2019-05-29T21:07:54.705Z,13.43
2019-05-29T21:10:24.899Z,13.38
2019-05-29T21:12:55.228Z,13.22
2019-05-29T21:15:25.813Z,13.24
2019-05-29T21:17:56.085Z,13.14
2019-05-29T21:20:29.085Z,13.06
2019-05-29T21:22:58.363Z,12.95
2019-05-29T21:25:28.569Z,12.89
2019-05-29T21:27:58.817Z,12.83
2019-05-29T21:30:29.174Z,12.85
2019-05-29T21:32:59.460Z,12.81
2019-05-29T21:35:29.755Z,12.80
2019-05-29T21:38:00.354Z,12.74
2019-05-29T21:40:30.601Z,12.64
2019-05-29T21:43:00.865Z,12.58
2019-05-29T21:45:31.369Z,12.58
2019-05-29T21:48:01.995Z,12.60
2019-05-29T21:50:32.343Z,12.71
2019-05-29T21:53:02.669Z,12.71
2019-05-29T21:55:33.411Z,12.65
2019-05-29T21:58:04.004Z,12.61
2019-05-29T22:00:48.196Z,12.57
2019-05-29T22:03:20.432Z,12.56
2019-05-29T22:05:50.850Z,12.62
2019-05-29T22:08:21.121Z,12.58
2019-05-29T22:10:51.581Z,12.45
2019-05-29T22:13:21.867Z,12.36
2019-05-29T22:15:52.636Z,12.31
2019-05-29T22:18:23.095Z,12.15
2019-05-29T22:20:53.442Z,12.09
2019-05-29T22:23:23.667Z,12.04
2019-05-29T22:25:55.299Z,11.96
2019-05-29T22:28:25.561Z,11.94
2019-05-29T22:30:55.774Z,11.88
2019-05-29T22:33:25.965Z,11.80
2019-05-29T22:35:57.497Z,11.72
2019-05-29T22:38:27.773Z,11.68
2019-05-29T22:40:58.261Z,11.70
2019-05-29T22:43:28.730Z,11.62
2019-05-29T22:45:59.735Z,11.64
2019-05-29T22:48:29.988Z,11.66
2019-05-29T22:51:00.349Z,11.66
2019-05-29T22:53:31.134Z,11.66
2019-05-29T22:56:02.038Z,11.67
2019-05-29T22:58:32.417Z,11.69
2019-05-29T23:01:03.031Z,11.63
2019-05-29T23:03:33.290Z,11.62
2019-05-29T23:06:03.544Z,11.55
2019-05-29T23:08:34.702Z,11.66
2019-05-29T23:11:04.999Z,11.59
2019-05-29T23:13:35.584Z,11.63
2019-05-29T23:16:05.814Z,11.76
2019-05-29T23:18:36.017Z,11.86
2019-05-29T23:21:06.361Z,11.82
2019-05-29T23:23:36.568Z,11.70
2019-05-29T23:26:07.179Z,11.57
2019-05-29T23:28:37.445Z,11.47
2019-05-29T23:31:07.928Z,11.49
2019-05-29T23:33:38.458Z,11.55
2019-05-29T23:36:08.745Z,11.54
2019-05-29T23:38:38.974Z,11.47
2019-05-29T23:41:09.204Z,11.51
2019-05-29T23:43:39.548Z,11.58
2019-05-29T23:46:09.741Z,11.78
2019-05-29T23:48:39.963Z,11.75
2019-05-29T23:51:10.532Z,11.80
2019-05-29T23:53:40.811Z,11.71
2019-05-29T23:56:11.050Z,11.66
2019-05-29T23:58:41.366Z,11.64
